sensor_id;sensor_type;location;lat;lon;timestamp;pressure;altitude;pressure_sealevel;temperature;humidity
26823;BME280;14852;51.910;8.878;2023-07-13T00:02:17;99566.66;;;22.01;43.03
26823;BME280;14852;51.910;8.878;2023-07-13T00:04:42;99561.94;;;21.95;43.29
26823;BME280;14852;51.910;8.878;2023-07-13T00:07:09;99565.22;;;21.89;43.17
26823;BME280;14852;51.910;8.878;2023-07-13T00:09:35;99559.88;;;21.81;43.87
26823;BME280;14852;51.910;8.878;2023-07-13T00:12:01;99568.44;;;21.75;43.76
26823;BME280;14852;51.910;8.878;2023-07-13T00:14:29;99572.84;;;21.66;43.96
26823;BME280;14852;51.910;8.878;2023-07-13T00:16:55;99575.13;;;21.61;44.08
26823;BME280;14852;51.910;8.878;2023-07-13T00:19:21;99573.41;;;21.52;44.28
26823;BME280;14852;51.910;8.878;2023-07-13T00:21:47;99583.78;;;21.46;44.21
26823;BME280;14852;51.910;8.878;2023-07-13T00:24:15;99575.09;;;21.36;44.05
26823;BME280;14852;51.910;8.878;2023-07-13T00:26:47;99573.38;;;21.26;44.33
26823;BME280;14852;51.910;8.878;2023-07-13T00:29:13;99582.44;;;21.24;44.35
26823;BME280;14852;51.910;8.878;2023-07-13T00:31:39;99581.97;;;21.11;45.08
26823;BME280;14852;51.910;8.878;2023-07-13T00:34:05;99583.69;;;21.02;45.21
26823;BME280;14852;51.910;8.878;2023-07-13T00:36:31;99585.72;;;20.90;45.18
26823;BME280;14852;51.910;8.878;2023-07-13T00:38:57;99584.97;;;20.80;45.32
26823;BME280;14852;51.910;8.878;2023-07-13T00:41:24;99592.81;;;20.72;45.90
26823;BME280;14852;51.910;8.878;2023-07-13T00:43:49;99584.34;;;20.69;46.01
26823;BME280;14852;51.910;8.878;2023-07-13T00:46:22;99582.41;;;20.71;45.44
26823;BME280;14852;51.910;8.878;2023-07-13T00:48:50;99579.22;;;20.67;45.96
26823;BME280;14852;51.910;8.878;2023-07-13T00:51:23;99585.47;;;20.66;45.67
26823;BME280;14852;51.910;8.878;2023-07-13T00:53:53;99584.13;;;20.62;45.86
26823;BME280;14852;51.910;8.878;2023-07-13T00:56:19;99581.78;;;20.59;45.90
26823;BME280;14852;51.910;8.878;2023-07-13T00:58:45;99583.03;;;20.55;46.31
26823;BME280;14852;51.910;8.878;2023-07-13T01:01:11;99571.81;;;20.53;45.99
26823;BME280;14852;51.910;8.878;2023-07-13T01:03:38;99583.78;;;20.47;46.05
26823;BME280;14852;51.910;8.878;2023-07-13T01:06:06;99580.09;;;20.40;46.57
26823;BME280;14852;51.910;8.878;2023-07-13T01:08:32;99575.25;;;20.36;46.55
26823;BME280;14852;51.910;8.878;2023-07-13T01:11:00;99574.66;;;20.32;46.37
26823;BME280;14852;51.910;8.878;2023-07-13T01:13:25;99580.91;;;20.31;46.36
26823;BME280;14852;51.910;8.878;2023-07-13T01:15:52;99575.13;;;20.28;46.60
26823;BME280;14852;51.910;8.878;2023-07-13T01:18:26;99573.03;;;20.21;46.64
26823;BME280;14852;51.910;8.878;2023-07-13T01:21:00;99576.19;;;20.07;46.96
26823;BME280;14852;51.910;8.878;2023-07-13T01:23:28;99579.00;;;19.86;47.29
26823;BME280;14852;51.910;8.878;2023-07-13T01:25:55;99574.50;;;19.69;47.96
26823;BME280;14852;51.910;8.878;2023-07-13T01:28:23;99574.66;;;19.58;48.07
26823;BME280;14852;51.910;8.878;2023-07-13T01:30:54;99579.25;;;19.56;48.17
26823;BME280;14852;51.910;8.878;2023-07-13T01:33:22;99575.78;;;19.56;48.15
26823;BME280;14852;51.910;8.878;2023-07-13T01:35:49;99577.56;;;19.55;48.07
26823;BME280;14852;51.910;8.878;2023-07-13T01:38:20;99571.06;;;19.59;47.60
26823;BME280;14852;51.910;8.878;2023-07-13T01:40:47;99576.72;;;19.64;47.70
26823;BME280;14852;51.910;8.878;2023-07-13T01:43:13;99581.72;;;19.67;47.99
26823;BME280;14852;51.910;8.878;2023-07-13T01:45:39;99582.69;;;19.66;48.20
26823;BME280;14852;51.910;8.878;2023-07-13T01:48:05;99579.66;;;19.61;48.04
26823;BME280;14852;51.910;8.878;2023-07-13T01:50:33;99582.16;;;19.53;48.32
26823;BME280;14852;51.910;8.878;2023-07-13T01:52:59;99599.63;;;19.54;48.60
26823;BME280;14852;51.910;8.878;2023-07-13T01:55:25;99593.38;;;19.55;48.58
26823;BME280;14852;51.910;8.878;2023-07-13T01:57:51;99590.06;;;19.53;48.46
26823;BME280;14852;51.910;8.878;2023-07-13T02:00:17;99585.47;;;19.55;48.43
26823;BME280;14852;51.910;8.878;2023-07-13T02:02:46;99596.13;;;19.63;48.26
26823;BME280;14852;51.910;8.878;2023-07-13T02:05:13;99595.31;;;19.72;48.35
26823;BME280;14852;51.910;8.878;2023-07-13T02:07:40;99594.59;;;19.80;48.04
26823;BME280;14852;51.910;8.878;2023-07-13T02:10:07;99592.19;;;19.86;48.17
26823;BME280;14852;51.910;8.878;2023-07-13T02:12:34;99593.72;;;19.89;48.21
26823;BME280;14852;51.910;8.878;2023-07-13T02:15:00;99589.03;;;19.83;48.32
26823;BME280;14852;51.910;8.878;2023-07-13T02:17:26;99593.88;;;19.78;48.79
26823;BME280;14852;51.910;8.878;2023-07-13T02:19:52;99594.03;;;19.76;48.53
26823;BME280;14852;51.910;8.878;2023-07-13T02:22:18;99589.03;;;19.73;48.75
26823;BME280;14852;51.910;8.878;2023-07-13T02:24:44;99597.78;;;19.74;48.85
26823;BME280;14852;51.910;8.878;2023-07-13T02:27:10;99604.56;;;19.76;48.45
26823;BME280;14852;51.910;8.878;2023-07-13T02:29:35;99597.50;;;19.77;48.79
26823;BME280;14852;51.910;8.878;2023-07-13T02:32:01;99598.34;;;19.77;48.84
26823;BME280;14852;51.910;8.878;2023-07-13T02:34:27;99598.34;;;19.77;48.72
26823;BME280;14852;51.910;8.878;2023-07-13T02:36:53;99597.63;;;19.75;49.27
26823;BME280;14852;51.910;8.878;2023-07-13T02:39:18;99591.66;;;19.73;49.01
26823;BME280;14852;51.910;8.878;2023-07-13T02:41:44;99591.00;;;19.71;49.15
26823;BME280;14852;51.910;8.878;2023-07-13T02:44:14;99590.19;;;19.71;49.21
26823;BME280;14852;51.910;8.878;2023-07-13T02:46:40;99587.53;;;19.71;49.31
26823;BME280;14852;51.910;8.878;2023-07-13T02:49:06;99580.59;;;19.70;49.53
26823;BME280;14852;51.910;8.878;2023-07-13T02:51:32;99581.72;;;19.67;49.82
26823;BME280;14852;51.910;8.878;2023-07-13T02:54:02;99579.22;;;19.66;49.88
26823;BME280;14852;51.910;8.878;2023-07-13T02:56:29;99583.50;;;19.67;49.63
26823;BME280;14852;51.910;8.878;2023-07-13T02:58:56;99581.00;;;19.65;49.66
26823;BME280;14852;51.910;8.878;2023-07-13T03:01:22;99585.59;;;19.63;49.91
26823;BME280;14852;51.910;8.878;2023-07-13T03:03:51;99585.91;;;19.60;50.23
26823;BME280;14852;51.910;8.878;2023-07-13T03:06:19;99588.13;;;19.55;49.82
26823;BME280;14852;51.910;8.878;2023-07-13T03:08:49;99580.34;;;19.53;49.99
26823;BME280;14852;51.910;8.878;2023-07-13T03:11:19;99590.06;;;19.53;50.41
26823;BME280;14852;51.910;8.878;2023-07-13T03:13:49;99585.88;;;19.50;50.34
26823;BME280;14852;51.910;8.878;2023-07-13T03:16:15;99597.53;;;19.48;50.20
26823;BME280;14852;51.910;8.878;2023-07-13T03:18:45;99598.63;;;19.45;50.60
26823;BME280;14852;51.910;8.878;2023-07-13T03:21:12;99597.94;;;19.43;50.38
26823;BME280;14852;51.910;8.878;2023-07-13T03:23:39;99595.31;;;19.43;50.07
26823;BME280;14852;51.910;8.878;2023-07-13T03:26:09;99604.19;;;19.42;50.43
26823;BME280;14852;51.910;8.878;2023-07-13T03:28:36;99606.81;;;19.42;50.60
26823;BME280;14852;51.910;8.878;2023-07-13T03:31:13;99599.75;;;19.43;50.22
26823;BME280;14852;51.910;8.878;2023-07-13T03:33:40;99602.66;;;19.40;50.68
26823;BME280;14852;51.910;8.878;2023-07-13T03:36:21;99611.25;;;19.42;50.28
26823;BME280;14852;51.910;8.878;2023-07-13T03:38:53;99613.19;;;19.40;50.38
26823;BME280;14852;51.910;8.878;2023-07-13T03:41:24;99614.31;;;19.37;50.22
26823;BME280;14852;51.910;8.878;2023-07-13T03:43:52;99613.50;;;19.37;50.10
26823;BME280;14852;51.910;8.878;2023-07-13T03:46:20;99607.41;;;19.36;50.66
26823;BME280;14852;51.910;8.878;2023-07-13T03:48:47;99603.63;;;19.39;50.23
26823;BME280;14852;51.910;8.878;2023-07-13T03:51:15;99615.56;;;19.43;49.98
26823;BME280;14852;51.910;8.878;2023-07-13T03:53:44;99614.59;;;19.44;49.99
26823;BME280;14852;51.910;8.878;2023-07-13T03:56:11;99618.75;;;19.46;50.17
26823;BME280;14852;51.910;8.878;2023-07-13T03:58:40;99616.94;;;19.47;50.02
26823;BME280;14852;51.910;8.878;2023-07-13T04:01:17;99612.25;;;19.50;49.98
26823;BME280;14852;51.910;8.878;2023-07-13T04:03:44;99620.00;;;19.52;49.57
26823;BME280;14852;51.910;8.878;2023-07-13T04:06:25;99623.06;;;19.57;49.41
26823;BME280;14852;51.910;8.878;2023-07-13T04:08:55;99616.00;;;19.58;49.12
26823;BME280;14852;51.910;8.878;2023-07-13T04:11:24;99617.81;;;19.57;49.20
26823;BME280;14852;51.910;8.878;2023-07-13T04:13:50;99623.75;;;19.59;49.61
26823;BME280;14852;51.910;8.878;2023-07-13T04:16:18;99629.44;;;19.64;49.37
26823;BME280;14852;51.910;8.878;2023-07-13T04:18:45;99632.75;;;19.66;49.41
26823;BME280;14852;51.910;8.878;2023-07-13T04:21:11;99633.72;;;19.65;49.23
26823;BME280;14852;51.910;8.878;2023-07-13T04:23:38;99637.06;;;19.67;49.16
26823;BME280;14852;51.910;8.878;2023-07-13T04:26:04;99634.03;;;19.72;49.06
26823;BME280;14852;51.910;8.878;2023-07-13T04:28:30;99643.28;;;19.76;49.10
26823;BME280;14852;51.910;8.878;2023-07-13T04:30:56;99630.66;;;19.79;48.78
26823;BME280;14852;51.910;8.878;2023-07-13T04:33:22;99642.28;;;19.86;48.92
26823;BME280;14852;51.910;8.878;2023-07-13T04:35:50;99636.84;;;19.98;48.66
26823;BME280;14852;51.910;8.878;2023-07-13T04:38:20;99636.38;;;20.21;48.06
26823;BME280;14852;51.910;8.878;2023-07-13T04:40:47;99647.63;;;21.06;46.18
26823;BME280;14852;51.910;8.878;2023-07-13T04:43:13;99643.28;;;22.19;44.33
26823;BME280;14852;51.910;8.878;2023-07-13T04:45:39;99645.34;;;23.34;42.06
26823;BME280;14852;51.910;8.878;2023-07-13T04:48:05;99631.50;;;24.36;39.93
26823;BME280;14852;51.910;8.878;2023-07-13T04:50:31;99629.75;;;25.21;38.22
26823;BME280;14852;51.910;8.878;2023-07-13T04:52:57;99628.38;;;25.71;37.32
26823;BME280;14852;51.910;8.878;2023-07-13T04:55:23;99624.81;;;26.30;36.77
26823;BME280;14852;51.910;8.878;2023-07-13T04:57:48;99621.94;;;26.97;36.14
26823;BME280;14852;51.910;8.878;2023-07-13T05:00:15;99621.75;;;27.63;34.97
26823;BME280;14852;51.910;8.878;2023-07-13T05:02:44;99618.38;;;28.10;34.11
26823;BME280;14852;51.910;8.878;2023-07-13T05:05:11;99623.16;;;28.49;33.99
26823;BME280;14852;51.910;8.878;2023-07-13T05:07:37;99628.47;;;28.90;33.25
26823;BME280;14852;51.910;8.878;2023-07-13T05:10:06;99618.50;;;29.51;32.17
26823;BME280;14852;51.910;8.878;2023-07-13T05:12:32;99621.78;;;30.06;31.50
26823;BME280;14852;51.910;8.878;2023-07-13T05:14:58;99618.22;;;30.25;31.28
26823;BME280;14852;51.910;8.878;2023-07-13T05:17:24;99612.00;;;30.38;31.16
26823;BME280;14852;51.910;8.878;2023-07-13T05:19:50;99620.59;;;30.67;30.60
26823;BME280;14852;51.910;8.878;2023-07-13T05:22:16;99626.09;;;31.16;30.26
26823;BME280;14852;51.910;8.878;2023-07-13T05:24:41;99619.81;;;31.29;29.89
26823;BME280;14852;51.910;8.878;2023-07-13T05:27:07;99618.84;;;31.23;29.69
26823;BME280;14852;51.910;8.878;2023-07-13T05:29:33;99618.13;;;31.35;29.78
26823;BME280;14852;51.910;8.878;2023-07-13T05:31:59;99617.69;;;31.87;29.48
26823;BME280;14852;51.910;8.878;2023-07-13T05:34:24;99613.06;;;32.37;28.83
26823;BME280;14852;51.910;8.878;2023-07-13T05:36:50;99615.94;;;32.54;28.00
26823;BME280;14852;51.910;8.878;2023-07-13T05:39:16;99619.22;;;32.56;27.99
26823;BME280;14852;51.910;8.878;2023-07-13T05:41:42;99616.00;;;32.84;27.66
26823;BME280;14852;51.910;8.878;2023-07-13T05:44:08;99616.81;;;33.15;27.69
26823;BME280;14852;51.910;8.878;2023-07-13T05:46:34;99619.75;;;33.66;27.12
26823;BME280;14852;51.910;8.878;2023-07-13T05:49:00;99611.47;;;33.91;26.62
26823;BME280;14852;51.910;8.878;2023-07-13T05:51:26;99617.72;;;33.50;27.04
26823;BME280;14852;51.910;8.878;2023-07-13T05:53:52;99624.06;;;32.66;27.69
26823;BME280;14852;51.910;8.878;2023-07-13T05:56:17;99622.50;;;32.03;28.86
26823;BME280;14852;51.910;8.878;2023-07-13T05:58:43;99627.00;;;31.35;29.71
26823;BME280;14852;51.910;8.878;2023-07-13T06:01:12;99633.97;;;31.05;30.06
26823;BME280;14852;51.910;8.878;2023-07-13T06:03:38;99627.84;;;30.98;30.43
26823;BME280;14852;51.910;8.878;2023-07-13T06:06:06;99631.13;;;31.38;29.55
26823;BME280;14852;51.910;8.878;2023-07-13T06:08:32;99622.81;;;32.14;28.22
26823;BME280;14852;51.910;8.878;2023-07-13T06:11:23;99629.22;;;33.16;27.42
26823;BME280;14852;51.910;8.878;2023-07-13T06:13:49;99618.78;;;33.61;26.94
26823;BME280;14852;51.910;8.878;2023-07-13T06:16:15;99626.91;;;34.07;26.42
26823;BME280;14852;51.910;8.878;2023-07-13T06:18:42;99619.38;;;34.33;25.88
26823;BME280;14852;51.910;8.878;2023-07-13T06:21:14;99628.31;;;34.10;26.21
26823;BME280;14852;51.910;8.878;2023-07-13T06:23:41;99631.53;;;33.12;26.79
26823;BME280;14852;51.910;8.878;2023-07-13T06:26:08;99646.06;;;31.83;28.60
26823;BME280;14852;51.910;8.878;2023-07-13T06:28:35;99647.75;;;31.21;29.46
26823;BME280;14852;51.910;8.878;2023-07-13T06:31:01;99650.56;;;30.95;30.09
26823;BME280;14852;51.910;8.878;2023-07-13T06:33:27;99662.63;;;30.73;30.42
26823;BME280;14852;51.910;8.878;2023-07-13T06:35:53;99659.59;;;30.49;30.54
26823;BME280;14852;51.910;8.878;2023-07-13T06:38:20;99665.25;;;30.86;29.94
26823;BME280;14852;51.910;8.878;2023-07-13T06:40:46;99665.50;;;31.22;29.38
26823;BME280;14852;51.910;8.878;2023-07-13T06:43:12;99666.69;;;31.33;29.19
26823;BME280;14852;51.910;8.878;2023-07-13T06:45:46;99661.47;;;31.70;28.95
26823;BME280;14852;51.910;8.878;2023-07-13T06:48:15;99667.88;;;32.18;28.57
26823;BME280;14852;51.910;8.878;2023-07-13T06:50:42;99665.34;;;32.78;27.83
26823;BME280;14852;51.910;8.878;2023-07-13T06:53:09;99667.19;;;32.96;27.43
26823;BME280;14852;51.910;8.878;2023-07-13T06:55:35;99664.81;;;33.18;27.38
26823;BME280;14852;51.910;8.878;2023-07-13T06:58:00;99666.97;;;33.27;27.31
26823;BME280;14852;51.910;8.878;2023-07-13T07:00:26;99666.22;;;32.90;27.87
26823;BME280;14852;51.910;8.878;2023-07-13T07:02:52;99674.22;;;32.24;28.59
26823;BME280;14852;51.910;8.878;2023-07-13T07:05:18;99683.63;;;31.65;29.44
26823;BME280;14852;51.910;8.878;2023-07-13T07:07:49;99685.16;;;31.16;30.21
26823;BME280;14852;51.910;8.878;2023-07-13T07:10:15;99693.84;;;31.12;29.91
26823;BME280;14852;51.910;8.878;2023-07-13T07:12:41;99689.69;;;31.16;29.93
26823;BME280;14852;51.910;8.878;2023-07-13T07:15:07;99692.81;;;31.44;29.30
26823;BME280;14852;51.910;8.878;2023-07-13T07:17:33;99685.53;;;31.51;28.96
26823;BME280;14852;51.910;8.878;2023-07-13T07:19:58;99680.53;;;32.11;28.53
26823;BME280;14852;51.910;8.878;2023-07-13T07:22:24;99683.22;;;32.72;27.96
26823;BME280;14852;51.910;8.878;2023-07-13T07:24:53;99682.47;;;33.32;27.21
26823;BME280;14852;51.910;8.878;2023-07-13T07:27:20;99690.69;;;33.19;27.14
26823;BME280;14852;51.910;8.878;2023-07-13T07:29:46;99686.72;;;32.91;27.74
26823;BME280;14852;51.910;8.878;2023-07-13T07:32:11;99688.22;;;32.87;27.82
26823;BME280;14852;51.910;8.878;2023-07-13T07:34:37;99684.91;;;32.67;27.77
26823;BME280;14852;51.910;8.878;2023-07-13T07:37:03;99687.56;;;31.87;28.98
26823;BME280;14852;51.910;8.878;2023-07-13T07:39:29;99680.84;;;31.96;28.51
26823;BME280;14852;51.910;8.878;2023-07-13T07:41:55;99683.47;;;31.53;29.74
26823;BME280;14852;51.910;8.878;2023-07-13T07:44:21;99679.28;;;31.89;29.43
26823;BME280;14852;51.910;8.878;2023-07-13T07:46:47;99673.13;;;32.07;28.94
26823;BME280;14852;51.910;8.878;2023-07-13T07:49:13;99682.47;;;31.79;29.44
26823;BME280;14852;51.910;8.878;2023-07-13T07:51:39;99687.44;;;32.00;28.82
26823;BME280;14852;51.910;8.878;2023-07-13T07:54:05;99683.91;;;31.82;28.96
26823;BME280;14852;51.910;8.878;2023-07-13T07:56:32;99682.41;;;31.86;28.79
26823;BME280;14852;51.910;8.878;2023-07-13T07:58:58;99692.63;;;31.39;29.28
26823;BME280;14852;51.910;8.878;2023-07-13T08:01:24;99692.78;;;31.19;29.69
26823;BME280;14852;51.910;8.878;2023-07-13T08:03:49;99691.09;;;31.56;29.27
26823;BME280;14852;51.910;8.878;2023-07-13T08:06:15;99697.25;;;31.32;29.53
26823;BME280;14852;51.910;8.878;2023-07-13T08:08:41;99700.84;;;31.82;28.95
26823;BME280;14852;51.910;8.878;2023-07-13T08:11:08;99702.25;;;31.85;29.05
26823;BME280;14852;51.910;8.878;2023-07-13T08:13:35;99703.28;;;31.59;28.76
26823;BME280;14852;51.910;8.878;2023-07-13T08:16:01;99702.41;;;30.89;30.16
26823;BME280;14852;51.910;8.878;2023-07-13T08:18:27;99715.34;;;30.21;30.91
26823;BME280;14852;51.910;8.878;2023-07-13T08:20:55;99708.16;;;30.08;31.02
26823;BME280;14852;51.910;8.878;2023-07-13T08:23:25;99701.28;;;30.45;30.45
26823;BME280;14852;51.910;8.878;2023-07-13T08:25:54;99700.09;;;30.08;31.47
26823;BME280;14852;51.910;8.878;2023-07-13T08:28:24;99706.88;;;29.65;31.89
26823;BME280;14852;51.910;8.878;2023-07-13T08:30:49;99704.22;;;30.11;31.34
26823;BME280;14852;51.910;8.878;2023-07-13T08:33:19;99715.50;;;30.52;30.32
26823;BME280;14852;51.910;8.878;2023-07-13T08:35:47;99705.22;;;30.30;30.90
26823;BME280;14852;51.910;8.878;2023-07-13T08:38:13;99705.19;;;30.49;30.99
26823;BME280;14852;51.910;8.878;2023-07-13T08:40:40;99696.81;;;30.90;30.48
26823;BME280;14852;51.910;8.878;2023-07-13T08:43:15;99708.53;;;31.03;30.41
26823;BME280;14852;51.910;8.878;2023-07-13T08:45:44;99700.38;;;30.78;31.16
26823;BME280;14852;51.910;8.878;2023-07-13T08:48:27;99703.88;;;30.78;30.85
26823;BME280;14852;51.910;8.878;2023-07-13T08:51:12;99703.06;;;30.71;31.46
26823;BME280;14852;51.910;8.878;2023-07-13T08:53:48;99692.78;;;30.62;31.30
26823;BME280;14852;51.910;8.878;2023-07-13T08:56:23;99690.72;;;30.64;31.35
26823;BME280;14852;51.910;8.878;2023-07-13T08:59:09;99691.16;;;30.60;31.80
26823;BME280;14852;51.910;8.878;2023-07-13T09:04:21;99697.09;;;30.69;31.47
26823;BME280;14852;51.910;8.878;2023-07-13T09:09:52;99704.72;;;30.72;31.51
26823;BME280;14852;51.910;8.878;2023-07-13T09:17:52;99706.66;;;30.32;31.94
26823;BME280;14852;51.910;8.878;2023-07-13T09:20:31;99705.00;;;30.38;31.79
26823;BME280;14852;51.910;8.878;2023-07-13T09:23:06;99709.16;;;30.20;32.26
26823;BME280;14852;51.910;8.878;2023-07-13T09:25:36;99708.31;;;30.27;31.91
26823;BME280;14852;51.910;8.878;2023-07-13T09:28:15;99706.84;;;30.37;31.73
26823;BME280;14852;51.910;8.878;2023-07-13T09:31:11;99701.09;;;30.34;31.83
26823;BME280;14852;51.910;8.878;2023-07-13T09:33:39;99706.47;;;30.27;31.86
26823;BME280;14852;51.910;8.878;2023-07-13T09:36:28;99716.78;;;30.04;31.91
26823;BME280;14852;51.910;8.878;2023-07-13T09:39:26;99721.50;;;29.75;32.03
26823;BME280;14852;51.910;8.878;2023-07-13T09:44:36;99709.75;;;29.63;32.17
26823;BME280;14852;51.910;8.878;2023-07-13T09:47:22;99708.72;;;29.84;31.87
26823;BME280;14852;51.910;8.878;2023-07-13T09:50:09;99716.16;;;30.02;31.55
26823;BME280;14852;51.910;8.878;2023-07-13T09:52:48;99702.13;;;30.26;31.31
26823;BME280;14852;51.910;8.878;2023-07-13T09:55:31;99704.16;;;30.37;31.26
26823;BME280;14852;51.910;8.878;2023-07-13T09:58:25;99705.84;;;30.25;30.98
26823;BME280;14852;51.910;8.878;2023-07-13T10:01:02;99716.16;;;30.15;31.40
26823;BME280;14852;51.910;8.878;2023-07-13T10:03:34;99713.88;;;30.12;31.14
26823;BME280;14852;51.910;8.878;2023-07-13T10:06:15;99718.66;;;30.10;31.15
26823;BME280;14852;51.910;8.878;2023-07-13T10:08:41;99715.75;;;30.05;31.42
26823;BME280;14852;51.910;8.878;2023-07-13T10:11:14;99711.44;;;30.17;31.05
26823;BME280;14852;51.910;8.878;2023-07-13T10:13:58;99710.38;;;30.31;30.90
26823;BME280;14852;51.910;8.878;2023-07-13T10:16:35;99715.13;;;30.16;30.72
26823;BME280;14852;51.910;8.878;2023-07-13T10:19:10;99717.38;;;29.93;30.60
26823;BME280;14852;51.910;8.878;2023-07-13T10:22:00;99730.38;;;29.76;31.13
26823;BME280;14852;51.910;8.878;2023-07-13T10:24:32;99721.47;;;29.56;31.22
26823;BME280;14852;51.910;8.878;2023-07-13T10:30:22;99735.28;;;29.66;31.37
26823;BME280;14852;51.910;8.878;2023-07-13T10:32:51;99721.91;;;29.72;30.59
26823;BME280;14852;51.910;8.878;2023-07-13T10:35:20;99724.16;;;29.56;31.23
26823;BME280;14852;51.910;8.878;2023-07-13T10:38:03;99725.03;;;29.76;31.13
26823;BME280;14852;51.910;8.878;2023-07-13T10:40:43;99727.91;;;29.94;30.72
26823;BME280;14852;51.910;8.878;2023-07-13T10:43:40;99731.84;;;29.98;30.83
26823;BME280;14852;51.910;8.878;2023-07-13T10:46:14;99730.19;;;30.04;30.47
26823;BME280;14852;51.910;8.878;2023-07-13T10:48:43;99734.53;;;29.98;30.75
26823;BME280;14852;51.910;8.878;2023-07-13T10:51:13;99734.09;;;29.88;30.59
26823;BME280;14852;51.910;8.878;2023-07-13T10:53:40;99730.00;;;29.99;30.89
26823;BME280;14852;51.910;8.878;2023-07-13T10:56:28;99734.31;;;30.06;30.42
26823;BME280;14852;51.910;8.878;2023-07-13T10:59:27;99736.34;;;29.91;30.82
26823;BME280;14852;51.910;8.878;2023-07-13T11:04:46;99735.47;;;29.58;31.03
26823;BME280;14852;51.910;8.878;2023-07-13T11:09:59;99741.69;;;29.65;31.11
26823;BME280;14852;51.910;8.878;2023-07-13T11:12:28;99739.63;;;29.73;31.31
26823;BME280;14852;51.910;8.878;2023-07-13T11:15:13;99729.13;;;29.72;30.79
26823;BME280;14852;51.910;8.878;2023-07-13T11:17:51;99734.69;;;29.70;30.84
26823;BME280;14852;51.910;8.878;2023-07-13T11:20:32;99741.44;;;29.46;31.00
26823;BME280;14852;51.910;8.878;2023-07-13T11:25:43;99729.78;;;29.13;31.18
26823;BME280;14852;51.910;8.878;2023-07-13T11:30:39;99730.94;;;29.38;31.03
26823;BME280;14852;51.910;8.878;2023-07-13T11:33:16;99727.44;;;29.58;31.07
26823;BME280;14852;51.910;8.878;2023-07-13T11:36:14;99726.69;;;29.97;30.59
26823;BME280;14852;51.910;8.878;2023-07-13T11:38:47;99714.09;;;30.23;29.96
26823;BME280;14852;51.910;8.878;2023-07-13T11:41:23;99711.63;;;30.15;30.25
26823;BME280;14852;51.910;8.878;2023-07-13T11:43:55;99718.63;;;29.83;30.01
26823;BME280;14852;51.910;8.878;2023-07-13T11:46:27;99720.28;;;29.65;30.55
26823;BME280;14852;51.910;8.878;2023-07-13T11:48:54;99721.47;;;29.56;30.60
26823;BME280;14852;51.910;8.878;2023-07-13T11:51:33;99722.28;;;29.49;30.73
26823;BME280;14852;51.910;8.878;2023-07-13T11:54:23;99716.53;;;29.59;30.64
26823;BME280;14852;51.910;8.878;2023-07-13T11:56:49;99719.22;;;29.79;30.00
26823;BME280;14852;51.910;8.878;2023-07-13T11:59:16;99715.56;;;30.00;30.19
26823;BME280;14852;51.910;8.878;2023-07-13T12:01:49;99719.88;;;30.07;30.05
26823;BME280;14852;51.910;8.878;2023-07-13T12:04:28;99715.75;;;30.05;30.29
26823;BME280;14852;51.910;8.878;2023-07-13T12:07:04;99713.69;;;29.94;30.12
26823;BME280;14852;51.910;8.878;2023-07-13T12:09:31;99720.88;;;29.80;29.83
26823;BME280;14852;51.910;8.878;2023-07-13T12:11:58;99721.28;;;29.64;30.17
26823;BME280;14852;51.910;8.878;2023-07-13T12:14:26;99722.06;;;29.44;30.07
26823;BME280;14852;51.910;8.878;2023-07-13T12:16:52;99722.91;;;29.45;30.47
26823;BME280;14852;51.910;8.878;2023-07-13T12:19:28;99716.16;;;29.75;29.96
26823;BME280;14852;51.910;8.878;2023-07-13T12:21:59;99711.66;;;30.09;29.50
26823;BME280;14852;51.910;8.878;2023-07-13T12:24:26;99718.03;;;30.14;29.74
26823;BME280;14852;51.910;8.878;2023-07-13T12:27:04;99724.63;;;30.05;29.80
26823;BME280;14852;51.910;8.878;2023-07-13T12:29:32;99719.84;;;29.81;30.00
26823;BME280;14852;51.910;8.878;2023-07-13T12:31:59;99726.22;;;29.67;29.82
26823;BME280;14852;51.910;8.878;2023-07-13T12:34:26;99720.47;;;29.70;29.78
26823;BME280;14852;51.910;8.878;2023-07-13T12:37:03;99722.53;;;29.81;29.68
26823;BME280;14852;51.910;8.878;2023-07-13T12:39:45;99727.25;;;29.79;29.62
26823;BME280;14852;51.910;8.878;2023-07-13T12:42:25;99719.28;;;29.99;29.76
26823;BME280;14852;51.910;8.878;2023-07-13T12:45:03;99716.75;;;30.23;29.53
26823;BME280;14852;51.910;8.878;2023-07-13T12:47:30;99720.50;;;30.16;29.29
26823;BME280;14852;51.910;8.878;2023-07-13T12:50:12;99718.66;;;30.03;29.56
26823;BME280;14852;51.910;8.878;2023-07-13T12:52:39;99718.47;;;29.98;30.17
26823;BME280;14852;51.910;8.878;2023-07-13T12:55:17;99727.28;;;29.92;29.71
26823;BME280;14852;51.910;8.878;2023-07-13T12:57:58;99728.72;;;29.75;29.90
26823;BME280;14852;51.910;8.878;2023-07-13T13:03:17;99735.13;;;30.00;29.74
26823;BME280;14852;51.910;8.878;2023-07-13T13:05:46;99730.59;;;30.07;29.48
26823;BME280;14852;51.910;8.878;2023-07-13T13:08:12;99725.44;;;30.06;29.50
26823;BME280;14852;51.910;8.878;2023-07-13T13:10:37;99723.63;;;30.00;29.57
26823;BME280;14852;51.910;8.878;2023-07-13T13:13:03;99726.28;;;30.06;30.18
26823;BME280;14852;51.910;8.878;2023-07-13T13:15:29;99725.88;;;30.22;29.92
26823;BME280;14852;51.910;8.878;2023-07-13T13:17:56;99727.28;;;30.38;29.22
26823;BME280;14852;51.910;8.878;2023-07-13T13:20:24;99726.41;;;30.51;29.00
26823;BME280;14852;51.910;8.878;2023-07-13T13:22:51;99725.81;;;30.49;28.79
26823;BME280;14852;51.910;8.878;2023-07-13T13:25:18;99718.38;;;30.51;29.00
26823;BME280;14852;51.910;8.878;2023-07-13T13:27:45;99726.63;;;30.63;28.73
26823;BME280;14852;51.910;8.878;2023-07-13T13:30:14;99724.78;;;30.63;28.99
26823;BME280;14852;51.910;8.878;2023-07-13T13:32:43;99721.03;;;30.71;29.00
26823;BME280;14852;51.910;8.878;2023-07-13T13:35:18;99723.31;;;30.67;28.56
26823;BME280;14852;51.910;8.878;2023-07-13T13:37:46;99737.56;;;30.35;29.08
26823;BME280;14852;51.910;8.878;2023-07-13T13:40:15;99742.78;;;30.10;29.42
26823;BME280;14852;51.910;8.878;2023-07-13T13:42:41;99745.88;;;30.07;29.52
26823;BME280;14852;51.910;8.878;2023-07-13T13:45:10;99737.81;;;30.07;29.40